Frank T. Stegbauer — WDE5944 — position and weather

sailwx.info

Track history (hours):
 
Tides and Currents Weather Stations Pressure Air Temp Water Temp Dewpoint Dewpoint Depression Visibility Wind Speed Wind Dir Waves Ship Positions

Frank T. Stegbauer

Owner: SOUTHERN TOWING COMPANY LLC., Memphis, TN. More information available from US FCC via Universal Licensing System and Coast Guard Vessel Documentation Center.

Last reported at 2017-Jul-20 23:30 UTC. Time now 2017-Jul-24 00:27 UTC.
Position N 31°60' W 091°05'.

Length 35 m; draft 3 m.

Type: Tug. MMSI: 367373640.

Date/timePositionNaut miles runAvg speedWind from/ knotsBaromVisibWave heightAir tempDewpointWater temp
2017-Jul-20 23:30N 31°60' W 091°05'5 8.5
2017-Jul-20 22:53N 32°05' W 091°04'3 8.6
2017-Jul-20 22:30N 32°08' W 091°06'5 9.0
2017-Jul-20 22:00N 32°08' W 091°01'5 9.4
2017-Jul-20 21:30N 32°12' W 090°59'5 9.3
2017-Jul-20 21:00N 32°16' W 090°57'5 9.1
2017-Jul-20 20:30N 32°20' W 090°54'4 9.0
2017-Jul-20 20:00N 32°21' W 090°59'4 8.4
2017-Jul-20 19:30N 32°25' W 091°00'5 9.4
2017-Jul-20 19:00N 32°27' W 091°05'11 9.3
2017-Jul-20 17:48N 32°38' W 091°09'3 9.2
2017-Jul-20 17:29N 32°40' W 091°07'  
Track history (hours):
 
Tides and Currents Weather Stations Pressure Air Temp Water Temp Dewpoint Dewpoint Depression Visibility Wind Speed Wind Dir Waves Ship Positions

Frank T. Stegbauer

Owner: SOUTHERN TOWING COMPANY LLC., Memphis, TN. More information available from US FCC via Universal Licensing System and Coast Guard Vessel Documentation Center.

Last reported at 2017-Jul-20 23:30 UTC. Time now 2017-Jul-24 00:27 UTC.
Position N 31°60' W 091°05'.

Length 35 m; draft 3 m.

Type: Tug. MMSI: 367373640.

Date/timePositionNaut miles runAvg speedWind from/ knotsBaromVisibWave heightAir tempDewpointWater temp
2017-Jul-20 23:30N 31°60' W 091°05'5 8.5
2017-Jul-20 22:53N 32°05' W 091°04'3 8.6
2017-Jul-20 22:30N 32°08' W 091°06'5 9.0
2017-Jul-20 22:00N 32°08' W 091°01'5 9.4
2017-Jul-20 21:30N 32°12' W 090°59'5 9.3
2017-Jul-20 21:00N 32°16' W 090°57'5 9.1
2017-Jul-20 20:30N 32°20' W 090°54'4 9.0
2017-Jul-20 20:00N 32°21' W 090°59'4 8.4
2017-Jul-20 19:30N 32°25' W 091°00'5 9.4
2017-Jul-20 19:00N 32°27' W 091°05'11 9.3
2017-Jul-20 17:48N 32°38' W 091°09'3 9.2
2017-Jul-20 17:29N 32°40' W 091°07'  

Dump ship's entire track history